This is the latest recevied weather packets stored in our database for station/object KBTL-WX. If no packets are shown the sender has not sent any weather packets the latest 10 day(s).
| Time | Temp. | Humidity | Pressure | Rain* | Wind** | Luminosity | Snow |
|---|---|---|---|---|---|---|---|
| 1788139817 | 70° F | 84% | 736.6 mmHg | 0 in | - | - | - |
| 1788138013 | 71° F | 84% | 736.6 mmHg | 0 in | - | - | - |
| 1788137117 | 71° F | 74% | 737.1 mmHg | 0 in | - | - | - |
| 1788136217 | 71° F | 78% | 736.9 mmHg | 0 in | - | - | - |
| 1788135316 | 72° F | 78% | 736.9 mmHg | 0 in | - | - | - |
| 1788134419 | 72° F | 78% | 736.9 mmHg | 0 in | - | - | - |
| 1788133517 | 73° F | 70% | 737.4 mmHg | 0 in | - | - | - |
| 1788132617 | 74° F | 71% | 737.5 mmHg | 0 in | - | - | - |
| 1788131714 | 75° F | 71% | 737.5 mmHg | 0 in | - | - | - |
| 1788130817 | 75° F | 71% | 737.5 mmHg | 0 in | - | - | - |
| 1788129917 | 75° F | 63% | 737.7 mmHg | 0 in | - | - | - |
| 1788129018 | 76° F | 65% | 738 mmHg | 0 in | - | - | - |
| 1788128117 | 77° F | 65% | 738 mmHg | 0 in | - | - | - |
| 1788127221 | 77° F | 65% | 738 mmHg | 0 in | - | - | - |
| 1788126317 | 78° F | 70% | 737.3 mmHg | 0 in | - | - | - |
| 1788125418 | 78° F | 64% | 737.8 mmHg | 0 in | - | - | - |
| 1788124517 | 80° F | 64% | 737.9 mmHg | 0 in | - | - | - |
| 1788123614 | 79° F | 64% | 737.9 mmHg | 0 in | - | - | - |
| 1788122716 | 79° F | 61% | 737.5 mmHg | 0 in | - | - | - |
| 1788121816 | 79° F | 62% | 737.3 mmHg | 0 in | - | - | - |
| 1788120916 | 79° F | 62% | 737.3 mmHg | 0 in | - | - | - |
| 1788120016 | 79° F | 58% | 737.5 mmHg | 0 in | - | - | - |
| 1788119116 | 79° F | 68% | 737.4 mmHg | 0 in | - | - | - |
| 1788118215 | 79° F | 68% | 737.4 mmHg | 0 in | - | - | - |
| 1788117315 | 79° F | 69% | 737.4 mmHg | 0 in | - | - | - |
* Rain latest hour (hover to see other rain measurements)
** Current wind speed in m/s (hover to see current wind gust speed)